Time;durP1;ratioP1;P1;durP2;ratioP2;P2;SDS_P1;SDS_P2;PMS_P1;PMS_P2;Temp;Humidity;BMP_temperature;BMP_pressure;BME280_temperature;BME280_humidity;BME280_pressure;Samples;Min_cycle;Max_cycle;Signal;HPM_P1;HPM_P2
2020/12/20 00:00:15;;;;;;;3.00;1.67;;;;;;;15.67;41.69;99748.88;5074039;28;20486;-74
2020/12/20 00:02:46;;;;;;;2.42;1.10;;;;;;;15.59;41.79;99753.44;5074016;28;20021;-75
2020/12/20 00:05:12;;;;;;;2.15;1.00;;;;;;;15.66;41.68;99761.84;5074080;28;20016;-75
2020/12/20 00:07:38;;;;;;;3.08;1.30;;;;;;;15.67;41.56;99759.88;5073938;28;20017;-75
2020/12/20 00:10:03;;;;;;;5.18;1.63;;;;;;;15.55;41.63;99758.88;5074094;28;20020;-75
2020/12/20 00:12:29;;;;;;;6.25;2.38;;;;;;;15.57;41.73;99766.78;5074076;28;20111;-75
2020/12/20 00:14:54;;;;;;;3.42;1.80;;;;;;;15.53;41.72;99758.47;5073800;28;20137;-74
2020/12/20 00:17:20;;;;;;;3.97;1.80;;;;;;;15.55;41.84;99769.09;5073633;28;20627;-74
2020/12/20 00:19:45;;;;;;;6.13;2.08;;;;;;;15.43;41.90;99759.09;5073731;28;20032;-75
2020/12/20 00:22:13;;;;;;;3.20;1.20;;;;;;;15.49;41.98;99776.91;5072370;28;20391;-75
2020/12/20 00:24:41;;;;;;;3.95;1.70;;;;;;;15.48;42.06;99778.03;5073833;28;20380;-74
2020/12/20 00:27:10;;;;;;;3.20;1.50;;;;;;;15.48;42.07;99780.00;5073396;28;20016;-74
2020/12/20 00:29:37;;;;;;;3.88;1.67;;;;;;;15.41;42.21;99788.94;5073413;28;20033;-74
2020/12/20 00:32:06;;;;;;;2.92;1.50;;;;;;;15.30;42.46;99795.44;5073691;28;20399;-75
2020/12/20 00:34:31;;;;;;;2.47;1.33;;;;;;;15.36;42.38;99799.47;5073676;28;20032;-74
2020/12/20 00:36:57;;;;;;;3.10;1.45;;;;;;;15.37;42.52;99790.06;5073260;28;20487;-74
2020/12/20 00:39:23;;;;;;;4.07;1.70;;;;;;;15.35;42.44;99787.69;5073289;28;20029;-75
2020/12/20 00:41:54;;;;;;;3.05;1.52;;;;;;;15.23;42.88;99793.34;5073216;28;20023;-75
2020/12/20 00:44:20;;;;;;;3.42;1.30;;;;;;;15.30;42.67;99793.47;5073565;28;20382;-74
2020/12/20 00:46:46;;;;;;;4.25;1.58;;;;;;;15.19;42.90;99796.06;5072930;28;20033;-74
2020/12/20 00:49:12;;;;;;;5.30;2.05;;;;;;;15.10;43.28;99795.47;5072596;28;20449;-75
2020/12/20 00:51:38;;;;;;;4.85;1.95;;;;;;;15.31;42.68;99794.28;5073067;28;20024;-74
2020/12/20 00:54:03;;;;;;;4.45;1.60;;;;;;;15.27;42.80;99806.03;5073014;28;20024;-75
2020/12/20 00:56:29;;;;;;;7.65;2.08;;;;;;;15.25;42.73;99800.06;5072694;28;20048;-74
2020/12/20 00:58:55;;;;;;;5.65;1.88;;;;;;;15.21;42.86;99807.50;5072964;28;20024;-75
2020/12/20 01:01:24;;;;;;;5.47;2.63;;;;;;;15.15;43.06;99811.69;5072399;28;20032;-75
2020/12/20 01:03:49;;;;;;;5.30;1.90;;;;;;;15.24;42.96;99819.72;5072774;28;20545;-74
2020/12/20 01:06:20;;;;;;;6.05;1.80;;;;;;;15.25;42.94;99816.59;5071520;28;20037;-75
2020/12/20 01:08:46;;;;;;;7.25;2.65;;;;;;;15.26;42.51;99814.63;5072881;28;20032;-74
2020/12/20 01:11:13;;;;;;;6.13;1.50;;;;;;;15.26;42.74;99817.38;5072876;28;20031;-76
2020/12/20 01:13:42;;;;;;;5.30;1.85;;;;;;;15.22;42.74;99817.31;5072731;28;20032;-75
2020/12/20 01:16:15;;;;;;;3.85;1.90;;;;;;;15.20;42.94;99816.13;5072950;28;20032;-74
2020/12/20 01:18:41;;;;;;;5.28;1.35;;;;;;;15.24;42.81;99826.00;5072726;28;20032;-74
2020/12/20 01:21:07;;;;;;;4.05;1.98;;;;;;;14.93;43.41;99824.25;5072939;28;20044;-74
2020/12/20 01:23:32;;;;;;;5.80;1.70;;;;;;;15.15;43.17;99817.19;5072648;28;20035;-75
2020/12/20 01:26:01;;;;;;;3.60;1.73;;;;;;;15.08;43.01;99838.28;5072604;28;20053;-75
2020/12/20 01:28:27;;;;;;;3.25;1.77;;;;;;;15.16;43.00;99835.28;5072538;28;20107;-74
2020/12/20 01:30:54;;;;;;;4.30;1.52;;;;;;;15.08;43.10;99830.03;5072623;28;20063;-75
2020/12/20 01:33:19;;;;;;;4.43;1.80;;;;;;;15.15;43.00;99838.41;5072516;28;20150;-74
2020/12/20 01:35:45;;;;;;;5.28;2.15;;;;;;;15.10;43.26;99841.47;5072754;28;20112;-75
2020/12/20 01:38:11;;;;;;;7.03;2.30;;;;;;;15.05;43.41;99841.78;5072452;28;20067;-75
2020/12/20 01:40:36;;;;;;;5.22;1.75;;;;;;;15.15;43.19;99843.94;5072448;28;20476;-75
2020/12/20 01:43:02;;;;;;;9.90;2.08;;;;;;;15.21;42.95;99848.75;5072437;28;20415;-75
2020/12/20 01:45:27;;;;;;;3.85;1.70;;;;;;;15.04;43.71;99851.16;5072435;28;20028;-75
2020/12/20 01:47:54;;;;;;;6.95;1.70;;;;;;;15.18;43.28;99854.19;5072678;28;20382;-74
2020/12/20 01:50:20;;;;;;;6.55;2.53;;;;;;;15.12;43.42;99863.94;5072406;28;20036;-75
2020/12/20 01:52:46;;;;;;;6.75;2.22;;;;;;;15.19;43.06;99864.84;5072355;28;20032;-74
2020/12/20 01:55:13;;;;;;;6.60;2.08;;;;;;;15.19;43.03;99869.56;5072111;28;20044;-75
2020/12/20 01:57:40;;;;;;;5.90;1.60;;;;;;;15.13;43.42;99869.06;5072363;28;20103;-75
2020/12/20 02:00:06;;;;;;;9.05;3.20;;;;;;;15.25;43.12;99879.09;5075297;28;20528;-74
2020/12/20 02:02:32;;;;;;;4.90;1.67;;;;;;;15.27;43.09;99879.53;5076370;28;20046;-75
2020/12/20 02:04:58;;;;;;;4.90;1.83;;;;;;;15.23;42.92;99884.16;5076281;28;20024;-74
2020/12/20 02:07:24;;;;;;;4.57;1.85;;;;;;;15.10;43.38;99885.47;5076278;28;20021;-75
2020/12/20 02:09:50;;;;;;;7.88;1.90;;;;;;;15.19;43.23;99883.31;5076261;28;20033;-74
2020/12/20 02:12:15;;;;;;;5.95;1.90;;;;;;;15.20;43.08;99891.22;5076147;28;20025;-73
2020/12/20 02:14:41;;;;;;;3.72;1.70;;;;;;;15.17;43.08;99883.66;5076361;28;20021;-74
2020/12/20 02:17:07;;;;;;;4.82;1.58;;;;;;;15.12;43.45;99889.47;5074684;28;20025;-75
2020/12/20 02:19:33;;;;;;;7.32;1.80;;;;;;;15.21;43.44;99892.00;5076016;28;20211;-75
2020/12/20 02:22:00;;;;;;;4.45;1.75;;;;;;;15.29;43.27;99899.22;5074711;28;20025;-75
2020/12/20 02:24:25;;;;;;;7.05;1.63;;;;;;;15.28;43.26;99897.63;5075905;28;20027;-74
2020/12/20 02:26:51;;;;;;;8.85;2.20;;;;;;;15.31;43.29;99907.91;5075867;28;20028;-75
2020/12/20 02:29:17;;;;;;;4.35;1.63;;;;;;;15.28;43.31;99905.91;5075803;28;20024;-75
2020/12/20 02:31:42;;;;;;;4.55;1.38;;;;;;;15.26;43.47;99910.94;5075780;28;20024;-74
2020/12/20 02:34:09;;;;;;;6.07;2.25;;;;;;;15.38;43.08;99904.50;5075578;28;20031;-75
2020/12/20 02:36:37;;;;;;;5.50;1.48;;;;;;;15.47;42.63;99916.06;5075609;28;20024;-74
2020/12/20 02:39:07;;;;;;;7.25;2.30;;;;;;;15.45;43.25;99926.66;5075640;28;20025;-75
2020/12/20 02:41:33;;;;;;;6.70;1.83;;;;;;;15.49;43.26;99928.31;5075799;28;20450;-76
2020/12/20 02:43:59;;;;;;;5.63;1.85;;;;;;;15.55;43.23;99935.09;5075529;28;20103;-74
2020/12/20 02:46:26;;;;;;;10.13;2.08;;;;;;;15.54;43.02;99936.25;5075439;28;20109;-75
2020/12/20 02:48:52;;;;;;;4.60;1.88;;;;;;;15.62;42.97;99937.22;5075488;28;20021;-74
2020/12/20 02:51:18;;;;;;;5.70;1.58;;;;;;;15.61;43.07;99943.06;5075416;28;20364;-74
2020/12/20 02:53:45;;;;;;;5.90;1.70;;;;;;;15.68;42.80;99943.22;5075377;28;20410;-74
2020/12/20 02:56:13;;;;;;;4.47;1.23;;;;;;;15.69;42.60;99948.34;5073826;28;20499;-74
2020/12/20 02:58:39;;;;;;;7.82;1.70;;;;;;;15.57;43.00;99947.69;5075311;28;20025;-75
2020/12/20 03:01:05;;;;;;;3.25;1.45;;;;;;;15.64;42.72;99947.84;5075175;28;20031;-75
2020/12/20 03:03:31;;;;;;;4.85;1.42;;;;;;;15.59;42.86;99948.94;5075142;28;20033;-75
2020/12/20 03:05:56;;;;;;;5.18;1.55;;;;;;;15.51;43.03;99953.53;5075402;28;20054;-75
2020/12/20 03:08:22;;;;;;;7.55;1.58;;;;;;;15.51;43.12;99950.75;5075205;28;20380;-75
2020/12/20 03:10:47;;;;;;;5.55;1.35;;;;;;;15.57;42.73;99950.44;5074122;28;20032;-75
2020/12/20 03:13:13;;;;;;;6.00;1.50;;;;;;;15.59;42.95;99956.41;5075056;28;20394;-74
2020/12/20 03:15:43;;;;;;;11.57;2.35;;;;;;;15.46;43.09;99967.56;5074975;28;20040;-75
2020/12/20 03:18:09;;;;;;;5.68;1.70;;;;;;;15.50;43.26;99971.22;5073646;28;20399;-75
2020/12/20 03:20:35;;;;;;;7.82;4.13;;;;;;;15.51;42.93;99967.28;5074882;28;20502;-75
2020/12/20 03:23:01;;;;;;;9.30;2.75;;;;;;;15.53;42.78;99969.66;5074843;28;20465;-75
2020/12/20 03:25:27;;;;;;;4.70;1.70;;;;;;;15.39;43.14;99972.16;5074777;28;20103;-75
2020/12/20 03:27:53;;;;;;;4.93;2.08;;;;;;;15.26;43.46;99968.75;5075011;28;20108;-74
2020/12/20 03:30:19;;;;;;;9.88;2.03;;;;;;;15.11;44.14;99969.63;5074665;28;20032;-75
2020/12/20 03:32:44;;;;;;;4.38;1.60;;;;;;;15.15;43.82;99968.53;5074634;28;20029;-74
2020/12/20 03:35:10;;;;;;;5.20;1.20;;;;;;;15.16;43.91;99972.09;5074620;28;20459;-75
2020/12/20 03:37:36;;;;;;;5.28;1.83;;;;;;;15.22;43.61;99971.44;5073122;28;20058;-75
2020/12/20 03:40:03;;;;;;;8.95;1.50;;;;;;;15.13;43.70;99953.56;5074474;28;20028;-75
2020/12/20 03:42:29;;;;;;;7.80;2.22;;;;;;;15.14;43.85;99974.41;5074505;28;20594;-74
2020/12/20 03:44:54;;;;;;;8.20;2.00;;;;;;;15.40;43.38;99976.50;5073303;28;20024;-75
2020/12/20 03:47:20;;;;;;;9.98;2.03;;;;;;;15.47;43.22;99971.91;5074356;28;20031;-75
2020/12/20 03:49:45;;;;;;;5.05;1.73;;;;;;;15.40;43.62;99977.28;5074591;28;20024;-74
2020/12/20 03:52:11;;;;;;;6.25;2.08;;;;;;;15.35;43.63;99983.09;5074325;28;20044;-75
2020/12/20 03:54:36;;;;;;;10.13;1.95;;;;;;;15.53;43.19;99989.72;5073994;28;20137;-75
2020/12/20 03:57:02;;;;;;;9.93;1.83;;;;;;;15.61;42.95;99985.19;5074189;28;20375;-75
2020/12/20 03:59:28;;;;;;;7.25;1.38;;;;;;;15.61;42.91;99978.84;5074151;28;20025;-75
2020/12/20 04:01:54;;;;;;;9.65;2.20;;;;;;;15.60;42.89;99983.56;5074158;28;20016;-75
2020/12/20 04:04:20;;;;;;;6.28;1.70;;;;;;;15.56;42.82;99990.97;5074038;28;20021;-75
2020/12/20 04:06:45;;;;;;;18.45;2.83;;;;;;;15.62;42.88;99988.75;5073906;28;20027;-75
2020/12/20 04:09:11;;;;;;;8.60;2.10;;;;;;;15.42;43.39;99997.00;5073799;28;20028;-75
2020/12/20 04:11:37;;;;;;;7.97;2.40;;;;;;;15.48;43.35;100001.03;5072660;28;20025;-75
2020/12/20 04:14:02;;;;;;;5.38;1.48;;;;;;;15.52;42.97;99998.38;5073843;28;20100;-75
2020/12/20 04:16:28;;;;;;;7.70;1.92;;;;;;;15.44;43.25;99993.88;5073657;28;20111;-74
2020/12/20 04:18:54;;;;;;;5.30;1.55;;;;;;;15.50;42.97;99998.75;5072459;28;20028;-74
2020/12/20 04:21:19;;;;;;;6.35;1.40;;;;;;;15.49;43.26;99994.41;5073651;28;20021;-75
2020/12/20 04:23:45;;;;;;;9.48;1.88;;;;;;;15.49;43.08;100004.59;5073689;28;20021;-75
2020/12/20 04:26:10;;;;;;;6.93;1.80;;;;;;;15.44;43.05;100004.91;5073573;28;20024;-72
2020/12/20 04:28:36;;;;;;;5.47;1.70;;;;;;;15.50;42.87;100001.50;5073594;28;20046;-72
2020/12/20 04:31:01;;;;;;;4.38;2.08;;;;;;;15.38;43.25;99995.34;5073478;28;20112;-72
2020/12/20 04:33:27;;;;;;;7.55;2.03;;;;;;;15.40;43.25;100004.81;5073473;28;20052;-72
2020/12/20 04:35:53;;;;;;;7.10;2.55;;;;;;;15.41;43.25;100016.63;5073415;28;20478;-72
2020/12/20 04:38:18;;;;;;;4.30;1.77;;;;;;;15.31;43.54;100009.75;5073373;28;20031;-72
2020/12/20 04:40:44;;;;;;;10.13;2.22;;;;;;;15.43;43.35;100014.31;5073342;28;20379;-74
2020/12/20 04:43:13;;;;;;;4.80;1.95;;;;;;;15.35;43.50;100018.09;5073488;28;20028;-72
2020/12/20 04:45:39;;;;;;;6.20;2.17;;;;;;;15.47;43.29;100028.94;5073256;28;20048;-72
2020/12/20 04:48:05;;;;;;;8.25;1.75;;;;;;;15.47;43.19;100029.72;5073239;28;20059;-72
2020/12/20 04:50:32;;;;;;;7.93;2.00;;;;;;;15.51;43.03;100029.81;5073153;28;20028;-72
2020/12/20 04:53:00;;;;;;;5.88;1.80;;;;;;;15.45;43.29;100037.56;5073024;28;20108;-72
2020/12/20 04:55:26;;;;;;;8.30;2.17;;;;;;;15.36;43.67;100037.00;5072826;28;20052;-72
2020/12/20 04:57:53;;;;;;;7.07;2.17;;;;;;;15.49;43.38;100034.88;5072919;28;20085;-72
2020/12/20 05:00:20;;;;;;;7.75;2.03;;;;;;;15.64;43.06;100027.72;5073024;28;20024;-72
2020/12/20 05:02:46;;;;;;;8.07;2.58;;;;;;;15.62;42.94;100032.78;5072934;28;20081;-72
2020/12/20 05:05:12;;;;;;;6.03;2.35;;;;;;;15.54;43.08;100029.88;5072941;28;20100;-73
2020/12/20 05:07:38;;;;;;;8.23;1.90;;;;;;;15.50;43.20;100036.50;5072956;28;20029;-72
2020/12/20 05:10:08;;;;;;;9.60;2.20;;;;;;;15.50;43.18;100039.25;5072849;28;20074;-72
2020/12/20 05:12:36;;;;;;;8.73;2.03;;;;;;;15.49;43.05;100038.44;5072851;28;20486;-72
2020/12/20 05:15:24;;;;;;;8.30;1.88;;;;;;;15.46;43.18;100036.41;5072326;28;20418;-71
2020/12/20 05:18:08;;;;;;;11.20;2.50;;;;;;;15.52;43.04;100036.91;5072404;28;20437;-72
2020/12/20 05:20:42;;;;;;;6.93;1.65;;;;;;;15.48;43.12;100041.53;5072748;28;20081;-72
2020/12/20 05:23:09;;;;;;;8.77;2.05;;;;;;;15.40;43.20;100032.34;5072672;28;20383;-72
2020/12/20 05:25:37;;;;;;;6.78;1.60;;;;;;;15.27;43.53;100022.66;5072680;28;20035;-71
2020/12/20 05:28:11;;;;;;;5.95;1.70;;;;;;;15.27;43.84;100033.66;5072679;28;20029;-72
2020/12/20 05:30:39;;;;;;;6.38;1.50;;;;;;;15.45;43.05;100040.31;5072637;28;20028;-72
2020/12/20 05:33:05;;;;;;;4.82;1.33;;;;;;;15.26;43.73;100034.78;5072429;28;20461;-72
2020/12/20 05:35:30;;;;;;;7.65;1.83;;;;;;;15.37;43.16;100037.78;5072433;28;20032;-72
2020/12/20 05:37:56;;;;;;;4.53;1.85;;;;;;;15.21;43.60;100040.59;5072455;28;20097;-72
2020/12/20 05:40:24;;;;;;;7.03;1.75;;;;;;;15.18;43.74;100041.31;5072470;28;20024;-71
2020/12/20 05:42:56;;;;;;;9.13;1.98;;;;;;;15.17;43.88;100040.50;5072519;28;20029;-72
2020/12/20 05:45:24;;;;;;;6.72;1.75;;;;;;;15.15;43.69;100039.28;5072355;28;20028;-72
2020/12/20 05:47:49;;;;;;;11.18;2.47;;;;;;;15.06;43.90;100042.25;5072401;28;20029;-72
2020/12/20 05:50:15;;;;;;;4.95;1.40;;;;;;;15.10;43.80;100032.09;5072698;28;20020;-72
2020/12/20 05:52:41;;;;;;;6.13;1.80;;;;;;;15.12;43.54;100040.81;5072435;28;20025;-73
2020/12/20 05:55:13;;;;;;;8.18;2.00;;;;;;;14.99;44.10;100040.13;5072145;28;20049;-72
2020/12/20 05:57:41;;;;;;;6.55;1.80;;;;;;;15.09;43.84;100040.72;5072359;28;20033;-72
2020/12/20 06:00:07;;;;;;;10.15;2.28;;;;;;;15.06;43.88;100038.69;5072557;28;20028;-72
2020/12/20 06:02:33;;;;;;;7.63;1.80;;;;;;;15.07;43.98;100043.03;5072283;28;20451;-72
2020/12/20 06:05:01;;;;;;;9.23;1.98;;;;;;;14.98;44.17;100048.75;5072295;28;20054;-72
2020/12/20 06:07:27;;;;;;;14.48;2.10;;;;;;;15.03;44.18;100047.66;5072462;28;20044;-72
2020/12/20 06:09:56;;;;;;;7.72;1.90;;;;;;;14.94;44.42;100047.88;5072190;28;20128;-72
2020/12/20 06:12:24;;;;;;;12.90;2.72;;;;;;;14.88;44.50;100055.59;5072197;28;20103;-73
2020/12/20 06:14:52;;;;;;;9.55;2.20;;;;;;;15.14;43.96;100046.75;5072193;28;20032;-72
2020/12/20 06:17:22;;;;;;;8.05;1.83;;;;;;;15.20;43.64;100053.56;5072118;28;20418;-72
2020/12/20 06:19:53;;;;;;;;;;;;;;;15.14;43.82;100041.25;5071293;28;20024;-72
2020/12/20 06:22:33;;;;;;;9.07;1.60;;;;;;;15.16;43.35;100044.44;5072065;28;19965;-71
2020/12/20 06:25:00;;;;;;;;;;;;;;;15.12;43.80;100042.78;5072527;28;20032;-72
2020/12/20 06:27:31;;;;;;;7.07;1.83;;;;;;;15.19;43.51;100053.94;5070830;28;19958;-72
2020/12/20 06:29:59;;;;;;;10.05;1.90;;;;;;;15.13;43.77;100061.66;5072091;28;20452;-72
2020/12/20 06:32:39;;;;;;;16.42;2.35;;;;;;;15.16;43.63;100060.13;5071967;28;20024;-72
2020/12/20 06:35:22;;;;;;;7.30;2.20;;;;;;;15.14;43.75;100063.25;5072009;28;20033;-71
2020/12/20 06:37:47;;;;;;;9.90;2.22;;;;;;;15.19;43.74;100070.44;5072015;28;20089;-72
2020/12/20 06:40:20;;;;;;;7.75;2.17;;;;;;;15.20;43.60;100072.84;5071904;28;20036;-72
2020/12/20 06:42:46;;;;;;;7.45;1.80;;;;;;;14.87;44.59;100073.25;5071970;28;20032;-72
2020/12/20 06:45:19;;;;;;;14.77;2.83;;;;;;;14.76;44.95;100065.91;5071912;28;20028;-72
2020/12/20 06:47:49;;;;;;;12.65;2.42;;;;;;;14.74;45.13;100071.00;5075480;28;20025;-72
2020/12/20 06:50:38;;;;;;;11.18;2.08;;;;;;;14.77;45.01;100084.00;5075416;28;20098;-72
2020/12/20 06:53:07;;;;;;;9.38;1.95;;;;;;;14.80;45.19;100094.28;5075309;28;20024;-72
2020/12/20 06:55:33;;;;;;;11.57;2.78;;;;;;;14.77;44.81;100092.25;5075260;28;20056;-73
2020/12/20 06:58:04;;;;;;;6.18;1.70;;;;;;;14.75;45.24;100094.59;5075295;28;20494;-72
2020/12/20 07:00:46;;;;;;;9.18;2.35;;;;;;;14.77;45.01;100106.81;5075222;28;20025;-72
2020/12/20 07:03:31;;;;;;;9.95;2.72;;;;;;;14.86;44.95;100092.88;5075161;28;20472;-72
2020/12/20 07:06:15;;;;;;;8.68;2.85;;;;;;;14.97;44.72;100102.97;5074742;28;20123;-73
2020/12/20 07:08:41;;;;;;;6.63;2.58;;;;;;;15.08;44.40;100107.91;5073864;28;20402;-73
2020/12/20 07:11:22;;;;;;;8.40;1.88;;;;;;;15.08;44.27;100121.69;5075062;28;20037;-72
2020/12/20 07:13:49;;;;;;;6.40;1.80;;;;;;;15.10;44.14;100122.09;5075345;28;20353;-72
2020/12/20 07:16:18;;;;;;;7.60;1.70;;;;;;;15.02;44.49;100134.09;5074893;28;20041;-72
2020/12/20 07:18:50;;;;;;;6.75;2.10;;;;;;;14.90;44.85;100141.31;5074984;28;20033;-71
2020/12/20 07:21:18;;;;;;;12.02;2.97;;;;;;;14.99;44.53;100136.41;5074754;28;20036;-72
2020/12/20 07:23:47;;;;;;;9.57;2.00;;;;;;;14.94;44.66;100142.19;5073478;28;20025;-72
2020/12/20 07:26:13;;;;;;;6.95;1.70;;;;;;;14.99;44.36;100135.63;5074805;28;20035;-72
2020/12/20 07:28:39;;;;;;;9.30;2.65;;;;;;;14.96;44.58;100134.41;5074812;28;20364;-73
2020/12/20 07:31:12;;;;;;;9.85;1.80;;;;;;;14.88;44.63;100149.09;5074661;28;20032;-72
2020/12/20 07:33:38;;;;;;;6.00;1.50;;;;;;;14.91;44.56;100153.91;5074748;28;20503;-71
2020/12/20 07:36:04;;;;;;;7.82;2.05;;;;;;;14.91;44.36;100148.41;5074632;28;20028;-72
2020/12/20 07:38:30;;;;;;;8.65;2.05;;;;;;;14.95;44.22;100138.28;5074543;28;20033;-72
2020/12/20 07:40:55;;;;;;;5.45;1.45;;;;;;;14.92;44.27;100158.25;5074515;28;20029;-72
2020/12/20 07:43:21;;;;;;;8.48;1.88;;;;;;;14.89;44.25;100155.44;5074747;28;20041;-73
2020/12/20 07:46:00;;;;;;;8.43;2.67;;;;;;;14.90;44.16;100157.03;5074583;28;20502;-72
2020/12/20 07:48:26;;;;;;;8.43;2.53;;;;;;;14.76;44.59;100156.66;5074116;28;20119;-70
2020/12/20 07:50:53;;;;;;;5.50;1.65;;;;;;;14.77;44.58;100161.03;5073916;28;20027;-73
2020/12/20 07:53:19;;;;;;;8.02;1.92;;;;;;;14.84;44.37;100170.25;5074253;28;20086;-72
2020/12/20 07:55:50;;;;;;;7.07;2.08;;;;;;;14.90;44.20;100179.84;5074114;28;20044;-73
2020/12/20 07:58:18;;;;;;;11.98;2.15;;;;;;;14.86;44.07;100173.44;5073719;28;20474;-73
2020/12/20 08:00:44;;;;;;;10.77;2.30;;;;;;;14.84;44.19;100172.19;5074181;28;20028;-72
2020/12/20 08:03:13;;;;;;;17.30;2.53;;;;;;;14.84;44.11;100175.75;5074039;28;20024;-72
2020/12/20 08:05:39;;;;;;;10.07;1.75;;;;;;;14.68;44.76;100184.00;5074286;28;20032;-71
2020/12/20 08:08:04;;;;;;;7.90;2.20;;;;;;;14.70;44.75;100181.69;5074000;28;20033;-72
2020/12/20 08:10:30;;;;;;;7.15;1.58;;;;;;;14.80;44.51;100182.28;5073941;28;20025;-72
2020/12/20 08:12:56;;;;;;;8.00;1.90;;;;;;;14.77;44.41;100189.31;5074173;28;20020;-71
2020/12/20 08:15:21;;;;;;;5.90;1.95;;;;;;;14.74;44.59;100190.03;5072603;28;20471;-72
2020/12/20 08:17:47;;;;;;;8.40;1.65;;;;;;;14.78;44.58;100192.84;5074007;28;20052;-72
2020/12/20 08:20:13;;;;;;;10.30;2.30;;;;;;;14.89;44.33;100203.00;5073778;28;20028;-73
2020/12/20 08:22:39;;;;;;;12.18;2.65;;;;;;;14.80;44.54;100207.84;5073337;28;20107;-73
2020/12/20 08:25:10;;;;;;;10.70;1.50;;;;;;;14.82;44.37;100211.06;5073555;28;20107;-72
2020/12/20 08:27:45;;;;;;;6.88;1.70;;;;;;;14.80;44.01;100202.34;5073625;28;20507;-71
2020/12/20 08:30:11;;;;;;;7.43;2.00;;;;;;;14.87;44.07;100210.78;5073502;28;20034;-71
2020/12/20 08:32:42;;;;;;;6.25;2.25;;;;;;;14.80;44.21;100216.09;5073515;28;20021;-70
2020/12/20 08:35:17;;;;;;;13.93;2.10;;;;;;;14.86;44.17;100227.66;5072234;28;20461;-71
2020/12/20 08:37:50;;;;;;;5.57;1.33;;;;;;;14.74;44.59;100227.75;5073332;28;20077;-71
2020/12/20 08:40:17;;;;;;;12.18;2.97;;;;;;;14.82;44.07;100227.56;5073388;28;20024;-72
2020/12/20 08:42:44;;;;;;;9.30;1.55;;;;;;;14.83;44.33;100231.13;5072273;28;20391;-73
2020/12/20 08:45:21;;;;;;;8.63;2.10;;;;;;;14.74;44.58;100241.50;5072907;28;20070;-72
2020/12/20 08:47:47;;;;;;;13.68;2.10;;;;;;;14.80;44.43;100245.56;5071592;28;20020;-73
2020/12/20 08:50:14;;;;;;;9.18;2.20;;;;;;;14.83;44.21;100250.38;5072706;28;20257;-72
2020/12/20 08:52:40;;;;;;;7.90;1.80;;;;;;;14.82;44.35;100257.03;5072665;28;20483;-73
2020/12/20 08:55:07;;;;;;;10.57;2.28;;;;;;;14.83;44.35;100255.88;5072367;28;20106;-72
2020/12/20 08:57:34;;;;;;;18.10;2.60;;;;;;;14.79;44.36;100275.00;5072488;28;20070;-73
2020/12/20 09:00:14;;;;;;;7.28;2.17;;;;;;;14.68;44.69;100273.94;5069022;28;20471;-73
2020/12/20 09:02:39;;;;;;;;;;;;;;;14.72;44.34;100274.81;5066014;28;20021;-72
2020/12/20 09:05:09;;;;;;;11.60;2.25;;;;;;;14.71;44.76;100282.28;5071792;28;20321;-73
2020/12/20 09:07:36;;;;;;;;;;;;;;;14.61;44.65;100282.00;5073115;28;20031;-74
2020/12/20 09:10:35;;;;;;;9.05;3.08;;;;;;;14.87;43.74;100276.78;5069864;28;19959;-72
2020/12/20 09:13:09;;;;;;;8.70;2.50;;;;;;;14.87;44.09;100276.00;5058690;28;20064;-73
2020/12/20 09:15:36;;;;;;;8.88;2.28;;;;;;;14.82;44.27;100279.81;5069302;28;20174;-74
2020/12/20 09:18:25;;;;;;;9.48;3.05;;;;;;;14.89;44.07;100291.00;5069924;28;20032;-73
2020/12/20 09:20:51;;;;;;;10.75;2.13;;;;;;;15.02;43.75;100285.41;5069689;28;20093;-73
2020/12/20 09:23:22;;;;;;;7.82;2.13;;;;;;;15.06;43.67;100280.81;5071825;28;20009;-72
2020/12/20 09:25:49;;;;;;;6.95;2.00;;;;;;;15.04;43.70;100289.44;5071956;28;20020;-72
2020/12/20 09:28:25;;;;;;;4.43;1.48;;;;;;;14.97;44.03;100289.25;5071400;28;20632;-74
2020/12/20 09:30:52;;;;;;;10.80;2.65;;;;;;;15.01;43.91;100297.59;5069411;28;20028;-73
2020/12/20 09:33:28;;;;;;;9.52;1.88;;;;;;;15.09;43.78;100305.66;5070136;28;20020;-75
2020/12/20 09:35:56;;;;;;;10.15;2.30;;;;;;;15.08;43.60;100315.06;5072503;28;20089;-75
2020/12/20 09:38:25;;;;;;;11.60;2.80;;;;;;;15.15;43.51;100307.00;5072498;28;20032;-75
2020/12/20 09:41:00;;;;;;;6.07;1.73;;;;;;;15.11;43.59;100306.09;5072652;28;20041;-74
2020/12/20 09:43:25;;;;;;;6.47;1.83;;;;;;;15.23;43.50;100308.00;5069299;28;20111;-74
2020/12/20 09:45:51;;;;;;;12.85;2.65;;;;;;;15.03;44.00;100309.03;5065390;28;20140;-75
2020/12/20 09:48:17;;;;;;;7.80;2.40;;;;;;;15.31;43.39;100309.75;5054845;28;20025;-75
2020/12/20 09:50:42;;;;;;;10.88;2.40;;;;;;;15.18;43.46;100317.28;5054553;28;20086;-73
2020/12/20 09:53:08;;;;;;;6.65;1.90;;;;;;;15.32;43.32;100319.63;5055542;28;20062;-75
2020/12/20 09:55:33;;;;;;;10.60;2.35;;;;;;;15.39;43.18;100328.06;5055916;28;20048;-74
2020/12/20 09:57:59;;;;;;;5.53;1.77;;;;;;;15.37;43.30;100330.38;5054258;28;20749;-74
2020/12/20 10:00:24;;;;;;;9.27;2.42;;;;;;;15.46;43.07;100333.75;5055361;28;20187;-74
2020/12/20 10:05:25;;;;;;;10.82;2.65;;;;;;;15.51;43.20;100327.19;5252723;22;20056;-77
2020/12/20 10:07:51;;;;;;;11.70;2.53;;;;;;;15.46;43.49;100332.94;5073773;28;20126;-77
2020/12/20 10:10:17;;;;;;;9.15;1.85;;;;;;;15.61;42.98;100342.34;5075267;28;20028;-76
2020/12/20 10:12:42;;;;;;;7.78;1.85;;;;;;;15.55;43.15;100342.63;5075131;28;20020;-76
2020/12/20 10:15:08;;;;;;;10.10;2.40;;;;;;;15.53;43.04;100344.94;5081948;28;20490;-76
2020/12/20 10:17:33;;;;;;;9.30;2.85;;;;;;;15.53;42.82;100349.66;5084471;28;20036;-76
2020/12/20 10:19:59;;;;;;;9.60;2.22;;;;;;;15.46;43.00;100355.75;5092454;28;20028;-76
2020/12/20 10:22:24;;;;;;;8.57;1.95;;;;;;;15.60;42.64;100358.09;5096260;28;20027;-76
2020/12/20 10:24:50;;;;;;;10.35;3.72;;;;;;;15.52;42.89;100365.38;5095481;28;20055;-76
2020/12/20 10:27:21;;;;;;;9.35;2.00;;;;;;;15.51;42.77;100361.00;5095947;28;20036;-76
2020/12/20 10:29:47;;;;;;;10.10;2.15;;;;;;;15.65;42.72;100360.59;5094440;28;20028;-76
2020/12/20 10:32:13;;;;;;;13.00;2.72;;;;;;;15.57;42.87;100371.75;5096076;28;20378;-76
2020/12/20 10:34:39;;;;;;;10.75;2.60;;;;;;;15.60;42.83;100377.34;5095122;28;20027;-76
2020/12/20 10:37:05;;;;;;;14.05;3.08;;;;;;;15.52;42.99;100381.09;5094216;28;20367;-76
2020/12/20 10:39:31;;;;;;;10.50;2.70;;;;;;;15.59;42.72;100385.97;5094517;28;20031;-76
2020/12/20 10:41:57;;;;;;;7.78;2.45;;;;;;;15.73;42.66;100378.91;5095815;28;20386;-75
2020/12/20 10:44:23;;;;;;;9.00;2.05;;;;;;;15.67;43.01;100372.06;5095764;28;20027;-75
2020/12/20 10:46:52;;;;;;;8.65;2.00;;;;;;;15.73;42.90;100369.84;5095764;28;20489;-75
2020/12/20 10:49:18;;;;;;;7.40;2.17;;;;;;;15.80;42.82;100370.00;5095162;28;20377;-74
2020/12/20 10:51:45;;;;;;;10.82;2.38;;;;;;;15.82;42.95;100374.00;5094215;28;20359;-75
2020/12/20 10:54:11;;;;;;;8.75;2.45;;;;;;;15.92;42.73;100367.13;5095235;28;20439;-75
2020/12/20 10:56:37;;;;;;;10.40;1.90;;;;;;;15.95;42.68;100365.66;5095694;28;20051;-75
2020/12/20 10:59:02;;;;;;;7.50;2.08;;;;;;;15.94;42.79;100367.56;5095499;28;20494;-75
2020/12/20 11:01:28;;;;;;;5.82;1.58;;;;;;;16.01;42.46;100358.69;5095586;28;20046;-75
2020/12/20 11:03:53;;;;;;;5.07;1.58;;;;;;;15.95;42.70;100366.44;5094448;28;20055;-75
2020/12/20 11:06:24;;;;;;;5.22;1.85;;;;;;;15.90;42.17;100369.47;5094540;28;20474;-75
2020/12/20 11:08:51;;;;;;;9.38;1.77;;;;;;;16.04;42.02;100377.28;5093695;28;20032;-75
2020/12/20 11:11:20;;;;;;;8.70;1.73;;;;;;;15.90;42.40;100376.94;5093931;28;20619;-75
2020/12/20 11:13:46;;;;;;;5.90;1.30;;;;;;;15.96;42.19;100383.78;5093399;28;20390;-75
2020/12/20 11:16:18;;;;;;;5.55;1.58;;;;;;;16.06;41.85;100374.94;5093877;28;20311;-75
2020/12/20 11:18:46;;;;;;;5.10;1.50;;;;;;;15.93;42.15;100374.25;5094348;28;20103;-75
2020/12/20 11:21:13;;;;;;;5.63;1.73;;;;;;;16.12;42.14;100383.75;5095139;28;20537;-75
2020/12/20 11:23:40;;;;;;;13.10;2.38;;;;;;;16.25;41.86;100372.25;5095013;28;20072;-75
2020/12/20 11:26:23;;;;;;;4.03;1.67;;;;;;;16.22;41.83;100370.19;5080603;28;20038;-75
2020/12/20 11:28:51;;;;;;;7.65;1.33;;;;;;;16.34;41.72;100367.31;5078785;28;20012;-75
2020/12/20 11:31:19;;;;;;;9.77;1.83;;;;;;;16.36;41.60;100359.47;5077729;28;20032;-75